sensor_id;sensor_type;location;lat;lon;timestamp;pressure;altitude;pressure_sealevel;temperature;humidity
4767;BME280;2397;53.576;9.746;2024-02-28T00:00:13;101982.19;;;2.94;100.00
4767;BME280;2397;53.576;9.746;2024-02-28T00:02:40;101974.59;;;2.90;100.00
4767;BME280;2397;53.576;9.746;2024-02-28T00:05:06;101978.50;;;2.98;100.00
4767;BME280;2397;53.576;9.746;2024-02-28T00:07:33;101978.50;;;2.98;100.00
4767;BME280;2397;53.576;9.746;2024-02-28T00:10:01;101983.19;;;2.92;100.00
4767;BME280;2397;53.576;9.746;2024-02-28T00:12:27;101975.44;;;2.90;100.00
4767;BME280;2397;53.576;9.746;2024-02-28T00:14:54;101984.22;;;3.06;100.00
4767;BME280;2397;53.576;9.746;2024-02-28T00:17:21;101982.59;;;3.04;100.00
4767;BME280;2397;53.576;9.746;2024-02-28T00:19:47;101987.41;;;2.94;100.00
4767;BME280;2397;53.576;9.746;2024-02-28T00:22:14;101995.38;;;2.91;100.00
4767;BME280;2397;53.576;9.746;2024-02-28T00:24:40;101994.16;;;2.98;100.00
4767;BME280;2397;53.576;9.746;2024-02-28T00:27:07;101997.81;;;2.94;100.00
4767;BME280;2397;53.576;9.746;2024-02-28T00:29:33;101997.41;;;2.85;100.00
4767;BME280;2397;53.576;9.746;2024-02-28T00:32:00;101993.06;;;2.85;100.00
4767;BME280;2397;53.576;9.746;2024-02-28T00:34:26;101993.91;;;2.86;100.00
4767;BME280;2397;53.576;9.746;2024-02-28T00:36:53;101995.38;;;2.91;100.00
4767;BME280;2397;53.576;9.746;2024-02-28T00:39:22;101996.78;;;2.80;100.00
4767;BME280;2397;53.576;9.746;2024-02-28T00:41:49;101979.47;;;2.79;100.00
4767;BME280;2397;53.576;9.746;2024-02-28T00:44:16;101977.81;;;2.95;100.00
4767;BME280;2397;53.576;9.746;2024-02-28T00:46:42;101986.91;;;2.86;100.00
4767;BME280;2397;53.576;9.746;2024-02-28T00:49:09;101984.84;;;2.93;100.00
4767;BME280;2397;53.576;9.746;2024-02-28T00:51:35;101985.50;;;2.79;100.00
4767;BME280;2397;53.576;9.746;2024-02-28T00:54:03;101990.09;;;2.74;100.00
4767;BME280;2397;53.576;9.746;2024-02-28T00:56:30;101990.09;;;2.74;100.00
4767;BME280;2397;53.576;9.746;2024-02-28T00:58:57;101995.31;;;2.74;100.00
4767;BME280;2397;53.576;9.746;2024-02-28T01:01:23;101991.78;;;2.75;100.00
4767;BME280;2397;53.576;9.746;2024-02-28T01:03:50;101981.28;;;2.77;100.00
4767;BME280;2397;53.576;9.746;2024-02-28T01:06:17;101977.69;;;2.79;100.00
4767;BME280;2397;53.576;9.746;2024-02-28T01:08:43;101974.31;;;2.77;100.00
4767;BME280;2397;53.576;9.746;2024-02-28T01:11:10;101967.72;;;2.70;100.00
4767;BME280;2397;53.576;9.746;2024-02-28T01:13:37;101968.13;;;2.61;100.00
4767;BME280;2397;53.576;9.746;2024-02-28T01:16:03;101954.03;;;2.65;100.00
4767;BME280;2397;53.576;9.746;2024-02-28T01:18:30;101958.00;;;2.55;100.00
4767;BME280;2397;53.576;9.746;2024-02-28T01:20:58;101949.38;;;2.53;100.00
4767;BME280;2397;53.576;9.746;2024-02-28T01:23:25;101969.47;;;2.51;100.00
4767;BME280;2397;53.576;9.746;2024-02-28T01:25:51;101972.09;;;2.51;100.00
4767;BME280;2397;53.576;9.746;2024-02-28T01:28:18;101971.78;;;2.57;100.00
4767;BME280;2397;53.576;9.746;2024-02-28T01:30:44;101973.75;;;2.52;100.00
4767;BME280;2397;53.576;9.746;2024-02-28T01:33:11;101974.53;;;2.54;100.00
4767;BME280;2397;53.576;9.746;2024-02-28T01:35:39;101969.03;;;2.60;100.00
4767;BME280;2397;53.576;9.746;2024-02-28T01:38:05;101962.56;;;2.69;100.00
4767;BME280;2397;53.576;9.746;2024-02-28T01:40:32;101963.75;;;2.62;100.00
4767;BME280;2397;53.576;9.746;2024-02-28T01:43:08;101966.44;;;2.60;100.00
4767;BME280;2397;53.576;9.746;2024-02-28T01:45:34;101965.88;;;2.54;100.00
4767;BME280;2397;53.576;9.746;2024-02-28T01:48:02;101970.38;;;2.50;100.00
4767;BME280;2397;53.576;9.746;2024-02-28T01:50:32;101959.53;;;2.59;100.00
4767;BME280;2397;53.576;9.746;2024-02-28T01:52:59;101963.06;;;2.58;100.00
4767;BME280;2397;53.576;9.746;2024-02-28T01:55:26;101963.22;;;2.55;100.00
4767;BME280;2397;53.576;9.746;2024-02-28T01:57:53;101969.41;;;2.53;100.00
4767;BME280;2397;53.576;9.746;2024-02-28T02:00:21;101962.22;;;2.58;100.00
4767;BME280;2397;53.576;9.746;2024-02-28T02:02:49;101966.56;;;2.57;100.00
4767;BME280;2397;53.576;9.746;2024-02-28T02:05:15;101956.50;;;2.68;100.00
4767;BME280;2397;53.576;9.746;2024-02-28T02:07:45;101965.25;;;2.67;100.00
4767;BME280;2397;53.576;9.746;2024-02-28T02:10:12;101965.56;;;2.60;100.00
4767;BME280;2397;53.576;9.746;2024-02-28T02:12:38;101968.50;;;2.54;100.00
4767;BME280;2397;53.576;9.746;2024-02-28T02:15:05;101970.09;;;2.56;100.00
4767;BME280;2397;53.576;9.746;2024-02-28T02:17:32;101973.75;;;2.52;100.00
4767;BME280;2397;53.576;9.746;2024-02-28T02:19:58;101965.94;;;2.52;100.00
4767;BME280;2397;53.576;9.746;2024-02-28T02:24:57;101969.09;;;2.59;100.00
4767;BME280;2397;53.576;9.746;2024-02-28T02:27:24;101962.91;;;2.61;100.00
4767;BME280;2397;53.576;9.746;2024-02-28T02:29:52;101968.97;;;2.62;100.00
4767;BME280;2397;53.576;9.746;2024-02-28T02:32:19;101970.72;;;2.61;100.00
4767;BME280;2397;53.576;9.746;2024-02-28T02:34:45;101959.25;;;2.65;100.00
4767;BME280;2397;53.576;9.746;2024-02-28T02:37:12;101970.72;;;2.61;100.00
4767;BME280;2397;53.576;9.746;2024-02-28T02:39:38;101959.88;;;2.70;100.00
4767;BME280;2397;53.576;9.746;2024-02-28T02:42:05;101967.78;;;2.69;100.00
4767;BME280;2397;53.576;9.746;2024-02-28T02:44:33;101965.78;;;2.74;100.00
4767;BME280;2397;53.576;9.746;2024-02-28T02:47:00;101971.72;;;2.59;100.00
4767;BME280;2397;53.576;9.746;2024-02-28T02:49:26;101969.25;;;2.56;100.00
4767;BME280;2397;53.576;9.746;2024-02-28T02:51:53;101971.31;;;2.68;100.00
4767;BME280;2397;53.576;9.746;2024-02-28T02:54:19;101973.91;;;2.68;100.00
4767;BME280;2397;53.576;9.746;2024-02-28T02:56:46;101971.31;;;2.68;100.00
4767;BME280;2397;53.576;9.746;2024-02-28T02:59:13;101972.13;;;2.87;100.00
4767;BME280;2397;53.576;9.746;2024-02-28T03:01:40;101973.81;;;2.88;100.00
4767;BME280;2397;53.576;9.746;2024-02-28T03:04:06;101970.66;;;2.81;100.00
4767;BME280;2397;53.576;9.746;2024-02-28T03:06:33;101977.88;;;2.93;100.00
4767;BME280;2397;53.576;9.746;2024-02-28T03:09:00;101976.81;;;2.97;100.00
4767;BME280;2397;53.576;9.746;2024-02-28T03:11:26;101975.84;;;3.00;100.00
4767;BME280;2397;53.576;9.746;2024-02-28T03:13:53;101965.97;;;3.06;100.00
4767;BME280;2397;53.576;9.746;2024-02-28T03:16:20;101959.13;;;3.04;100.00
4767;BME280;2397;53.576;9.746;2024-02-28T03:18:46;101952.16;;;3.04;100.00
4767;BME280;2397;53.576;9.746;2024-02-28T03:21:13;101948.00;;;3.00;100.00
4767;BME280;2397;53.576;9.746;2024-02-28T03:23:40;101960.91;;;3.03;100.00
4767;BME280;2397;53.576;9.746;2024-02-28T03:26:06;101958.50;;;2.99;100.00
4767;BME280;2397;53.576;9.746;2024-02-28T03:28:33;101963.84;;;2.96;100.00
4767;BME280;2397;53.576;9.746;2024-02-28T03:31:00;101958.97;;;2.90;100.00
4767;BME280;2397;53.576;9.746;2024-02-28T03:33:26;101948.88;;;2.82;100.00
4767;BME280;2397;53.576;9.746;2024-02-28T03:35:53;101953.16;;;2.83;100.00
4767;BME280;2397;53.576;9.746;2024-02-28T03:38:19;101956.16;;;2.76;100.00
4767;BME280;2397;53.576;9.746;2024-02-28T03:40:46;101956.28;;;2.73;100.00
4767;BME280;2397;53.576;9.746;2024-02-28T03:43:13;101965.00;;;2.90;100.00
4767;BME280;2397;53.576;9.746;2024-02-28T03:45:40;101960.78;;;2.88;100.00
4767;BME280;2397;53.576;9.746;2024-02-28T03:48:06;101959.16;;;2.85;100.00
4767;BME280;2397;53.576;9.746;2024-02-28T03:50:33;101959.16;;;2.85;100.00
4767;BME280;2397;53.576;9.746;2024-02-28T03:53:00;101956.63;;;2.84;100.00
4767;BME280;2397;53.576;9.746;2024-02-28T03:55:26;101956.41;;;2.88;100.00
4767;BME280;2397;53.576;9.746;2024-02-28T03:57:53;101964.41;;;3.02;100.00
4767;BME280;2397;53.576;9.746;2024-02-28T04:00:20;101958.16;;;3.06;100.00
4767;BME280;2397;53.576;9.746;2024-02-28T04:02:46;101961.59;;;3.07;100.00
4767;BME280;2397;53.576;9.746;2024-02-28T04:05:13;101958.72;;;2.94;100.00
4767;BME280;2397;53.576;9.746;2024-02-28T04:07:40;101953.03;;;2.86;100.00
4767;BME280;2397;53.576;9.746;2024-02-28T04:10:07;101957.63;;;2.81;100.00
4767;BME280;2397;53.576;9.746;2024-02-28T04:12:33;101951.75;;;2.76;100.00
4767;BME280;2397;53.576;9.746;2024-02-28T04:15:00;101959.69;;;2.75;100.00
4767;BME280;2397;53.576;9.746;2024-02-28T04:17:26;101953.75;;;2.71;100.00
4767;BME280;2397;53.576;9.746;2024-02-28T04:19:53;101944.19;;;2.72;100.00
4767;BME280;2397;53.576;9.746;2024-02-28T04:22:20;101937.69;;;2.62;100.00
4767;BME280;2397;53.576;9.746;2024-02-28T04:24:46;101944.81;;;2.58;100.00
4767;BME280;2397;53.576;9.746;2024-02-28T04:27:13;101950.44;;;2.49;100.00
4767;BME280;2397;53.576;9.746;2024-02-28T04:29:39;101951.66;;;2.42;100.00
4767;BME280;2397;53.576;9.746;2024-02-28T04:32:06;101954.91;;;2.47;100.00
4767;BME280;2397;53.576;9.746;2024-02-28T04:34:32;101958.25;;;2.49;100.00
4767;BME280;2397;53.576;9.746;2024-02-28T04:36:59;101962.28;;;2.56;100.00
4767;BME280;2397;53.576;9.746;2024-02-28T04:39:25;101964.19;;;2.53;100.00
4767;BME280;2397;53.576;9.746;2024-02-28T04:41:52;101970.72;;;2.61;100.00
4767;BME280;2397;53.576;9.746;2024-02-28T04:44:19;101961.78;;;2.67;100.00
4767;BME280;2397;53.576;9.746;2024-02-28T04:46:45;101958.47;;;2.63;100.00
4767;BME280;2397;53.576;9.746;2024-02-28T04:49:12;101966.44;;;2.60;100.00
4767;BME280;2397;53.576;9.746;2024-02-28T04:51:38;101952.47;;;2.61;100.00
4767;BME280;2397;53.576;9.746;2024-02-28T04:54:05;101965.50;;;2.61;100.00
4767;BME280;2397;53.576;9.746;2024-02-28T04:56:31;101965.75;;;2.57;100.00
4767;BME280;2397;53.576;9.746;2024-02-28T04:58:58;101964.19;;;2.53;100.00
4767;BME280;2397;53.576;9.746;2024-02-28T05:01:24;101962.63;;;2.49;100.00
4767;BME280;2397;53.576;9.746;2024-02-28T05:03:51;101964.41;;;2.48;100.00
4767;BME280;2397;53.576;9.746;2024-02-28T05:06:18;101966.56;;;2.57;100.00
4767;BME280;2397;53.576;9.746;2024-02-28T05:08:44;101976.22;;;2.55;100.00
4767;BME280;2397;53.576;9.746;2024-02-28T05:11:11;101975.03;;;2.62;100.00
4767;BME280;2397;53.576;9.746;2024-02-28T05:13:38;101971.25;;;2.69;100.00
4767;BME280;2397;53.576;9.746;2024-02-28T05:16:12;101978.00;;;2.73;100.00
4767;BME280;2397;53.576;9.746;2024-02-28T05:18:38;101980.19;;;2.64;100.00
4767;BME280;2397;53.576;9.746;2024-02-28T05:21:05;101974.19;;;2.62;100.00
4767;BME280;2397;53.576;9.746;2024-02-28T05:23:31;101981.16;;;2.61;100.00
4767;BME280;2397;53.576;9.746;2024-02-28T05:25:59;101977.28;;;2.70;100.00
4767;BME280;2397;53.576;9.746;2024-02-28T05:28:30;101973.69;;;2.72;100.00
4767;BME280;2397;53.576;9.746;2024-02-28T05:30:57;101978.00;;;2.73;100.00
4767;BME280;2397;53.576;9.746;2024-02-28T05:33:24;101972.06;;;2.70;100.00
4767;BME280;2397;53.576;9.746;2024-02-28T05:35:51;101980.09;;;2.65;100.00
4767;BME280;2397;53.576;9.746;2024-02-28T05:38:17;101985.41;;;2.64;100.00
4767;BME280;2397;53.576;9.746;2024-02-28T05:40:44;101990.25;;;2.71;100.00
4767;BME280;2397;53.576;9.746;2024-02-28T05:43:11;101983.75;;;2.80;100.00
4767;BME280;2397;53.576;9.746;2024-02-28T05:45:37;102000.25;;;2.80;100.00
4767;BME280;2397;53.576;9.746;2024-02-28T05:48:04;101995.03;;;2.80;100.00
4767;BME280;2397;53.576;9.746;2024-02-28T05:50:31;101996.00;;;2.78;100.00
4767;BME280;2397;53.576;9.746;2024-02-28T05:52:59;101998.53;;;2.79;100.00
4767;BME280;2397;53.576;9.746;2024-02-28T05:55:25;102002.94;;;2.79;100.00
4767;BME280;2397;53.576;9.746;2024-02-28T05:57:52;102003.00;;;2.77;100.00
4767;BME280;2397;53.576;9.746;2024-02-28T06:00:19;102008.91;;;2.81;100.00
4767;BME280;2397;53.576;9.746;2024-02-28T06:02:45;102000.53;;;2.74;100.00
4767;BME280;2397;53.576;9.746;2024-02-28T06:05:12;101999.81;;;2.71;100.00
4767;BME280;2397;53.576;9.746;2024-02-28T06:07:38;101996.44;;;2.69;100.00
4767;BME280;2397;53.576;9.746;2024-02-28T06:10:05;101993.13;;;2.65;100.00
4767;BME280;2397;53.576;9.746;2024-02-28T06:12:32;101997.78;;;2.77;100.00
4767;BME280;2397;53.576;9.746;2024-02-28T06:14:58;101994.69;;;2.69;100.00
4767;BME280;2397;53.576;9.746;2024-02-28T06:17:25;101993.41;;;2.59;100.00
4767;BME280;2397;53.576;9.746;2024-02-28T06:19:52;101994.59;;;2.52;100.00
4767;BME280;2397;53.576;9.746;2024-02-28T06:22:18;102003.91;;;2.58;100.00
4767;BME280;2397;53.576;9.746;2024-02-28T06:24:45;102003.97;;;2.56;100.00
4767;BME280;2397;53.576;9.746;2024-02-28T06:27:12;102008.56;;;2.51;100.00
4767;BME280;2397;53.576;9.746;2024-02-28T06:29:39;102009.53;;;2.49;100.00
4767;BME280;2397;53.576;9.746;2024-02-28T06:32:07;102013.78;;;2.51;100.00
4767;BME280;2397;53.576;9.746;2024-02-28T06:34:33;102018.25;;;2.48;100.00
4767;BME280;2397;53.576;9.746;2024-02-28T06:37:00;102027.25;;;2.41;100.00
4767;BME280;2397;53.576;9.746;2024-02-28T06:39:27;102031.66;;;2.40;100.00
4767;BME280;2397;53.576;9.746;2024-02-28T06:41:54;102026.69;;;2.34;100.00
4767;BME280;2397;53.576;9.746;2024-02-28T06:44:20;102023.53;;;2.28;100.00
4767;BME280;2397;53.576;9.746;2024-02-28T06:46:47;102021.63;;;2.31;100.00
4767;BME280;2397;53.576;9.746;2024-02-28T06:49:13;102027.13;;;2.44;100.00
4767;BME280;2397;53.576;9.746;2024-02-28T06:51:43;102024.63;;;2.61;100.00
4767;BME280;2397;53.576;9.746;2024-02-28T06:54:10;102033.94;;;2.66;100.00
4767;BME280;2397;53.576;9.746;2024-02-28T06:56:37;102024.47;;;2.82;100.00
4767;BME280;2397;53.576;9.746;2024-02-28T06:59:03;102022.22;;;2.93;100.00
4767;BME280;2397;53.576;9.746;2024-02-28T07:01:30;102032.72;;;2.92;100.00
4767;BME280;2397;53.576;9.746;2024-02-28T07:03:57;102038.22;;;3.04;100.00
4767;BME280;2397;53.576;9.746;2024-02-28T07:06:24;102043.28;;;3.07;100.00
4767;BME280;2397;53.576;9.746;2024-02-28T07:08:51;102029.53;;;3.22;100.00
4767;BME280;2397;53.576;9.746;2024-02-28T07:11:17;102036.28;;;3.26;100.00
4767;BME280;2397;53.576;9.746;2024-02-28T07:13:44;102034.88;;;3.19;100.00
4767;BME280;2397;53.576;9.746;2024-02-28T07:16:10;102030.09;;;3.10;100.00
4767;BME280;2397;53.576;9.746;2024-02-28T07:18:37;102042.38;;;3.08;100.00
4767;BME280;2397;53.576;9.746;2024-02-28T07:21:03;102036.22;;;3.09;100.00
4767;BME280;2397;53.576;9.746;2024-02-28T07:23:33;102044.69;;;3.14;100.00
4767;BME280;2397;53.576;9.746;2024-02-28T07:25:59;102047.41;;;3.30;100.00
4767;BME280;2397;53.576;9.746;2024-02-28T07:28:38;102045.38;;;3.36;100.00
4767;BME280;2397;53.576;9.746;2024-02-28T07:31:04;102053.13;;;3.38;100.00
4767;BME280;2397;53.576;9.746;2024-02-28T07:33:31;102058.88;;;3.44;100.00
4767;BME280;2397;53.576;9.746;2024-02-28T07:35:58;102070.50;;;3.56;100.00
4767;BME280;2397;53.576;9.746;2024-02-28T07:38:27;102062.44;;;3.60;100.00
4767;BME280;2397;53.576;9.746;2024-02-28T07:40:54;102061.22;;;3.50;100.00
4767;BME280;2397;53.576;9.746;2024-02-28T07:43:20;102063.09;;;3.47;100.00
4767;BME280;2397;53.576;9.746;2024-02-28T07:45:47;102069.19;;;3.47;100.00
4767;BME280;2397;53.576;9.746;2024-02-28T07:48:13;102074.41;;;3.64;100.00
4767;BME280;2397;53.576;9.746;2024-02-28T07:50:40;102073.66;;;3.80;100.00
4767;BME280;2397;53.576;9.746;2024-02-28T07:53:08;102075.75;;;3.90;100.00
4767;BME280;2397;53.576;9.746;2024-02-28T07:55:35;102075.75;;;3.90;100.00
4767;BME280;2397;53.576;9.746;2024-02-28T07:58:01;102070.28;;;4.12;100.00
4767;BME280;2397;53.576;9.746;2024-02-28T08:00:28;102085.44;;;4.05;100.00
4767;BME280;2397;53.576;9.746;2024-02-28T08:02:56;102080.28;;;4.21;100.00
4767;BME280;2397;53.576;9.746;2024-02-28T08:05:23;102081.50;;;4.31;100.00
4767;BME280;2397;53.576;9.746;2024-02-28T08:07:49;102082.41;;;4.47;100.00
4767;BME280;2397;53.576;9.746;2024-02-28T08:10:16;102079.16;;;4.59;100.00
4767;BME280;2397;53.576;9.746;2024-02-28T08:12:43;102082.56;;;4.44;100.00
4767;BME280;2397;53.576;9.746;2024-02-28T08:15:10;102086.94;;;4.43;100.00
4767;BME280;2397;53.576;9.746;2024-02-28T08:17:36;102087.41;;;4.34;100.00
4767;BME280;2397;53.576;9.746;2024-02-28T08:20:04;102081.63;;;4.28;100.00
4767;BME280;2397;53.576;9.746;2024-02-28T08:22:31;102077.47;;;4.41;100.00
4767;BME280;2397;53.576;9.746;2024-02-28T08:24:58;102072.09;;;4.44;100.00
4767;BME280;2397;53.576;9.746;2024-02-28T08:27:24;102074.84;;;4.58;100.00
4767;BME280;2397;53.576;9.746;2024-02-28T08:29:54;102075.19;;;4.35;100.00
4767;BME280;2397;53.576;9.746;2024-02-28T08:32:20;102083.66;;;4.23;100.00
4767;BME280;2397;53.576;9.746;2024-02-28T08:34:47;102082.41;;;4.13;100.00
4767;BME280;2397;53.576;9.746;2024-02-28T08:37:13;102095.56;;;4.11;100.00
4767;BME280;2397;53.576;9.746;2024-02-28T08:39:40;102095.97;;;4.21;100.00
4767;BME280;2397;53.576;9.746;2024-02-28T08:42:07;102092.28;;;4.25;100.00
4767;BME280;2397;53.576;9.746;2024-02-28T08:44:33;102100.22;;;4.39;100.00
4767;BME280;2397;53.576;9.746;2024-02-28T08:47:00;102101.16;;;4.55;100.00
4767;BME280;2397;53.576;9.746;2024-02-28T08:49:26;102100.19;;;4.73;100.00
4767;BME280;2397;53.576;9.746;2024-02-28T08:51:53;102104.59;;;4.88;100.00
4767;BME280;2397;53.576;9.746;2024-02-28T08:54:19;102099.88;;;4.94;100.00
4767;BME280;2397;53.576;9.746;2024-02-28T08:56:46;102099.91;;;5.10;100.00
4767;BME280;2397;53.576;9.746;2024-02-28T08:59:22;102094.88;;;4.90;100.00
4767;BME280;2397;53.576;9.746;2024-02-28T09:01:49;102104.63;;;5.19;100.00
4767;BME280;2397;53.576;9.746;2024-02-28T09:04:15;102114.91;;;5.53;100.00
4767;BME280;2397;53.576;9.746;2024-02-28T09:06:42;102111.41;;;5.54;100.00
4767;BME280;2397;53.576;9.746;2024-02-28T09:09:08;102114.09;;;5.37;100.00
4767;BME280;2397;53.576;9.746;2024-02-28T09:11:35;102115.78;;;5.22;100.00
4767;BME280;2397;53.576;9.746;2024-02-28T09:14:02;102122.53;;;5.42;100.00
4767;BME280;2397;53.576;9.746;2024-02-28T09:16:29;102118.16;;;5.58;100.00
4767;BME280;2397;53.576;9.746;2024-02-28T09:18:56;102110.22;;;5.59;100.00
4767;BME280;2397;53.576;9.746;2024-02-28T09:21:23;102111.03;;;5.75;100.00
4767;BME280;2397;53.576;9.746;2024-02-28T09:23:49;102105.53;;;5.80;100.00
4767;BME280;2397;53.576;9.746;2024-02-28T09:26:16;102106.97;;;5.70;100.00
4767;BME280;2397;53.576;9.746;2024-02-28T09:28:43;102111.19;;;5.88;100.00
4767;BME280;2397;53.576;9.746;2024-02-28T09:31:10;102115.72;;;6.00;100.00
4767;BME280;2397;53.576;9.746;2024-02-28T09:33:37;102109.63;;;5.99;98.36
4767;BME280;2397;53.576;9.746;2024-02-28T09:36:04;102111.03;;;5.75;100.00
4767;BME280;2397;53.576;9.746;2024-02-28T09:38:31;102119.28;;;5.68;100.00
4767;BME280;2397;53.576;9.746;2024-02-28T09:40:59;102119.28;;;5.68;100.00
4767;BME280;2397;53.576;9.746;2024-02-28T09:43:29;102110.25;;;5.89;100.00
4767;BME280;2397;53.576;9.746;2024-02-28T09:45:59;102116.59;;;5.85;100.00
4767;BME280;2397;53.576;9.746;2024-02-28T09:48:27;102113.66;;;5.91;100.00
4767;BME280;2397;53.576;9.746;2024-02-28T09:50:57;102113.31;;;6.11;99.86
4767;BME280;2397;53.576;9.746;2024-02-28T09:53:24;102105.97;;;5.88;99.98
4767;BME280;2397;53.576;9.746;2024-02-28T09:55:52;102104.72;;;6.09;100.00
4767;BME280;2397;53.576;9.746;2024-02-28T09:58:19;102102.84;;;6.11;99.99
4767;BME280;2397;53.576;9.746;2024-02-28T10:00:48;102102.41;;;6.18;99.75
4767;BME280;2397;53.576;9.746;2024-02-28T10:03:19;102108.47;;;6.48;99.78
4767;BME280;2397;53.576;9.746;2024-02-28T10:05:46;102104.59;;;7.10;94.97
4767;BME280;2397;53.576;9.746;2024-02-28T10:08:13;102107.88;;;7.54;92.80
4767;BME280;2397;53.576;9.746;2024-02-28T10:10:50;102109.97;;;7.49;90.49
4767;BME280;2397;53.576;9.746;2024-02-28T10:13:21;102118.34;;;7.42;89.87
4767;BME280;2397;53.576;9.746;2024-02-28T10:15:49;102112.72;;;7.34;88.87
4767;BME280;2397;53.576;9.746;2024-02-28T10:18:16;102110.00;;;7.35;90.27
4767;BME280;2397;53.576;9.746;2024-02-28T10:20:43;102119.94;;;7.30;89.47
4767;BME280;2397;53.576;9.746;2024-02-28T10:23:09;102116.41;;;7.31;90.65
4767;BME280;2397;53.576;9.746;2024-02-28T10:25:46;102109.69;;;7.40;89.60
4767;BME280;2397;53.576;9.746;2024-02-28T10:28:23;102108.84;;;7.53;89.93
4767;BME280;2397;53.576;9.746;2024-02-28T10:30:50;102108.75;;;7.94;89.50
4767;BME280;2397;53.576;9.746;2024-02-28T10:33:17;102111.09;;;7.72;87.39
4767;BME280;2397;53.576;9.746;2024-02-28T10:35:44;102117.88;;;7.49;88.92
4767;BME280;2397;53.576;9.746;2024-02-28T10:38:12;102122.53;;;7.44;89.97
4767;BME280;2397;53.576;9.746;2024-02-28T10:40:40;102131.53;;;7.54;90.53
4767;BME280;2397;53.576;9.746;2024-02-28T10:43:10;102127.72;;;7.32;90.15
4767;BME280;2397;53.576;9.746;2024-02-28T10:45:37;102134.63;;;6.92;92.63
4767;BME280;2397;53.576;9.746;2024-02-28T10:48:27;102142.75;;;7.01;94.43
4767;BME280;2397;53.576;9.746;2024-02-28T10:50:54;102133.19;;;7.29;93.26
4767;BME280;2397;53.576;9.746;2024-02-28T10:53:30;102139.13;;;6.90;93.07
4767;BME280;2397;53.576;9.746;2024-02-28T10:56:02;102144.53;;;6.73;95.26
4767;BME280;2397;53.576;9.746;2024-02-28T10:58:35;102148.09;;;7.00;95.96
4767;BME280;2397;53.576;9.746;2024-02-28T11:01:03;102142.84;;;6.86;94.48
4767;BME280;2397;53.576;9.746;2024-02-28T11:03:31;102149.56;;;6.48;95.29
4767;BME280;2397;53.576;9.746;2024-02-28T11:05:58;102153.78;;;6.36;96.33
4767;BME280;2397;53.576;9.746;2024-02-28T11:08:27;102149.50;;;6.20;97.57
4767;BME280;2397;53.576;9.746;2024-02-28T11:10:59;102149.19;;;6.40;99.08
4767;BME280;2397;53.576;9.746;2024-02-28T11:13:29;102147.34;;;6.70;97.89
4767;BME280;2397;53.576;9.746;2024-02-28T11:16:07;102145.63;;;6.55;97.40
4767;BME280;2397;53.576;9.746;2024-02-28T11:18:34;102143.38;;;6.49;98.76
4767;BME280;2397;53.576;9.746;2024-02-28T11:21:01;102153.44;;;6.70;99.11
4767;BME280;2397;53.576;9.746;2024-02-28T11:23:37;102152.56;;;6.42;98.68
4767;BME280;2397;53.576;9.746;2024-02-28T11:26:03;102156.78;;;6.15;100.00
4767;BME280;2397;53.576;9.746;2024-02-28T11:28:30;102150.94;;;6.25;100.00
4767;BME280;2397;53.576;9.746;2024-02-28T11:30:56;102149.00;;;6.43;100.00
4767;BME280;2397;53.576;9.746;2024-02-28T11:33:23;102147.75;;;6.34;100.00
4767;BME280;2397;53.576;9.746;2024-02-28T11:35:56;102143.50;;;6.47;100.00
4767;BME280;2397;53.576;9.746;2024-02-28T11:38:26;102151.25;;;6.49;100.00
4767;BME280;2397;53.576;9.746;2024-02-28T11:40:53;102154.19;;;6.58;100.00
4767;BME280;2397;53.576;9.746;2024-02-28T11:43:21;102154.06;;;6.46;100.00
4767;BME280;2397;53.576;9.746;2024-02-28T11:45:48;102153.16;;;6.61;100.00
4767;BME280;2397;53.576;9.746;2024-02-28T11:48:16;102154.16;;;6.44;100.00
4767;BME280;2397;53.576;9.746;2024-02-28T11:50:42;102158.53;;;6.44;100.00
4767;BME280;2397;53.576;9.746;2024-02-28T11:53:09;102143.09;;;6.53;100.00
4767;BME280;2397;53.576;9.746;2024-02-28T11:55:36;102151.19;;;6.21;100.00
4767;BME280;2397;53.576;9.746;2024-02-28T11:58:08;102145.34;;;6.16;100.00
4767;BME280;2397;53.576;9.746;2024-02-28T12:00:51;102150.34;;;6.20;100.00
4767;BME280;2397;53.576;9.746;2024-02-28T12:03:22;102149.13;;;6.26;100.00
4767;BME280;2397;53.576;9.746;2024-02-28T12:05:49;102148.19;;;6.27;100.00
4767;BME280;2397;53.576;9.746;2024-02-28T12:08:17;102148.97;;;6.29;100.00
4767;BME280;2397;53.576;9.746;2024-02-28T12:10:46;102150.06;;;6.25;100.00
4767;BME280;2397;53.576;9.746;2024-02-28T12:13:17;102152.53;;;6.28;100.00
4767;BME280;2397;53.576;9.746;2024-02-28T12:15:43;102153.25;;;6.30;100.00
4767;BME280;2397;53.576;9.746;2024-02-28T12:18:11;102148.31;;;6.25;100.00
4767;BME280;2397;53.576;9.746;2024-02-28T12:20:37;102155.19;;;6.42;100.00
4767;BME280;2397;53.576;9.746;2024-02-28T12:23:05;102145.34;;;6.45;100.00
4767;BME280;2397;53.576;9.746;2024-02-28T12:25:31;102145.63;;;6.55;100.00
4767;BME280;2397;53.576;9.746;2024-02-28T12:27:59;102140.50;;;6.67;100.00
4767;BME280;2397;53.576;9.746;2024-02-28T12:30:26;102136.84;;;6.70;100.00
4767;BME280;2397;53.576;9.746;2024-02-28T12:32:52;102139.31;;;6.87;100.00
4767;BME280;2397;53.576;9.746;2024-02-28T12:35:19;102132.94;;;6.77;100.00
4767;BME280;2397;53.576;9.746;2024-02-28T12:37:46;102126.63;;;6.65;100.00
4767;BME280;2397;53.576;9.746;2024-02-28T12:40:16;102124.78;;;6.67;100.00
4767;BME280;2397;53.576;9.746;2024-02-28T12:42:43;102116.63;;;6.72;100.00
4767;BME280;2397;53.576;9.746;2024-02-28T12:45:09;102119.22;;;6.86;100.00
4767;BME280;2397;53.576;9.746;2024-02-28T12:47:36;102121.41;;;6.79;100.00
4767;BME280;2397;53.576;9.746;2024-02-28T12:50:04;102117.19;;;6.91;100.00
4767;BME280;2397;53.576;9.746;2024-02-28T12:52:31;102114.75;;;6.74;100.00
4767;BME280;2397;53.576;9.746;2024-02-28T12:54:57;102110.06;;;6.79;100.00
4767;BME280;2397;53.576;9.746;2024-02-28T12:57:24;102113.25;;;6.84;100.00
4767;BME280;2397;53.576;9.746;2024-02-28T12:59:50;102111.38;;;6.72;100.00
4767;BME280;2397;53.576;9.746;2024-02-28T13:02:17;102115.88;;;6.70;100.00
4767;BME280;2397;53.576;9.746;2024-02-28T13:04:46;102114.38;;;6.80;100.00
4767;BME280;2397;53.576;9.746;2024-02-28T13:07:12;102113.81;;;6.61;100.00
4767;BME280;2397;53.576;9.746;2024-02-28T13:09:39;102105.84;;;6.48;100.00
4767;BME280;2397;53.576;9.746;2024-02-28T13:12:07;102109.09;;;6.52;100.00
4767;BME280;2397;53.576;9.746;2024-02-28T13:14:35;102101.22;;;6.24;100.00